Time;durP1;ratioP1;P1;durP2;ratioP2;P2;SDS_P1;SDS_P2;PMS_P1;PMS_P2;Temp;Humidity;BMP_temperature;BMP_pressure;BME280_temperature;BME280_humidity;BME280_pressure;Samples;Min_cycle;Max_cycle;Signal;HPM_P1;HPM_P2
2021/06/20 00:01:06;;;;;;;27.58;15.68;;;17.20;99.90;;;;;;5083765;28;20102;-81
2021/06/20 00:03:32;;;;;;;22.65;14.73;;;17.20;99.90;;;;;;5036239;28;20052;-81
2021/06/20 00:06:04;;;;;;;32.28;18.45;;;17.10;99.90;;;;;;5072011;28;20056;-81
2021/06/20 00:08:30;;;;;;;37.42;19.30;;;17.10;99.90;;;;;;5072471;28;20059;-81
2021/06/20 00:10:56;;;;;;;36.90;21.30;;;17.10;99.90;;;;;;5090230;28;20427;-81
2021/06/20 00:13:22;;;;;;;35.50;20.40;;;17.00;99.90;;;;;;5097198;28;20047;-81
2021/06/20 00:15:50;;;;;;;46.17;24.50;;;16.90;99.90;;;;;;5094915;28;20065;-81
2021/06/20 00:18:16;;;;;;;40.35;23.13;;;16.80;99.90;;;;;;5064966;28;20075;-81
2021/06/20 00:20:46;;;;;;;50.15;22.88;;;16.70;99.90;;;;;;5091317;28;20047;-81
2021/06/20 00:23:13;;;;;;;37.55;22.95;;;16.60;99.90;;;;;;5088830;28;20052;-81
2021/06/20 00:25:39;;;;;;;37.17;22.25;;;16.50;99.90;;;;;;5072167;28;20055;-81
2021/06/20 00:28:06;;;;;;;41.10;24.10;;;16.50;99.90;;;;;;5071184;28;20048;-81
2021/06/20 00:30:33;;;;;;;58.33;26.10;;;16.50;99.90;;;;;;5090508;28;20051;-81
2021/06/20 00:33:00;;;;;;;45.08;23.33;;;16.50;99.90;;;;;;5057450;28;20072;-81
2021/06/20 00:35:26;;;;;;;56.20;25.70;;;16.40;99.90;;;;;;5067374;28;20483;-81
2021/06/20 00:37:53;;;;;;;37.95;22.02;;;16.40;99.90;;;;;;5055142;28;20051;-81
2021/06/20 00:40:20;;;;;;;34.80;21.23;;;16.40;99.90;;;;;;5068532;28;20045;-81
2021/06/20 00:42:46;;;;;;;51.08;24.73;;;16.40;99.90;;;;;;5072649;28;20046;-81
2021/06/20 00:45:16;;;;;;;51.50;24.60;;;16.40;99.90;;;;;;5055129;28;20105;-81
2021/06/20 00:47:41;;;;;;;42.42;23.08;;;16.40;99.90;;;;;;5072300;28;20063;-81
2021/06/20 00:50:11;;;;;;;38.67;21.23;;;16.40;99.90;;;;;;5062812;28;20491;-81
2021/06/20 00:52:38;;;;;;;29.52;19.00;;;16.30;99.90;;;;;;5041098;28;20069;-81
2021/06/20 00:55:05;;;;;;;25.20;16.83;;;16.40;99.90;;;;;;5062911;28;20055;-81
2021/06/20 00:57:33;;;;;;;30.52;18.38;;;16.40;99.90;;;;;;5071320;28;20394;-81
2021/06/20 01:00:00;;;;;;;31.77;18.10;;;16.30;99.90;;;;;;5067014;28;20137;-81
2021/06/20 01:02:27;;;;;;;27.13;16.10;;;16.30;99.90;;;;;;5077535;28;20384;-81
2021/06/20 01:04:55;;;;;;;29.38;16.90;;;16.30;99.90;;;;;;5072759;28;20487;-81
2021/06/20 01:07:22;;;;;;;22.27;15.18;;;16.30;99.90;;;;;;5084138;28;20048;-81
2021/06/20 01:09:50;;;;;;;27.85;16.38;;;16.30;99.90;;;;;;5073124;28;21531;-81
2021/06/20 01:12:17;;;;;;;17.65;13.02;;;16.30;99.90;;;;;;5090625;28;20048;-81
2021/06/20 01:14:44;;;;;;;18.38;13.00;;;16.30;99.90;;;;;;5074626;28;20036;-81
2021/06/20 01:17:11;;;;;;;22.60;13.75;;;16.30;99.90;;;;;;5086833;28;20479;-81
2021/06/20 01:19:38;;;;;;;20.35;12.57;;;16.30;99.90;;;;;;5069055;28;20042;-81
2021/06/20 01:22:20;;;;;;;26.27;13.95;;;16.30;99.90;;;;;;5044699;28;20048;-81
2021/06/20 01:24:51;;;;;;;24.75;13.73;;;16.30;99.90;;;;;;5050256;28;20060;-81
2021/06/20 01:27:17;;;;;;;19.67;12.48;;;16.30;99.90;;;;;;5086932;28;20064;-81
2021/06/20 01:29:48;;;;;;;21.35;12.13;;;16.30;99.90;;;;;;5050778;28;20048;-81
2021/06/20 01:32:16;;;;;;;19.50;11.82;;;16.30;99.90;;;;;;5054873;28;20495;-81
2021/06/20 01:34:43;;;;;;;19.27;11.93;;;16.20;99.90;;;;;;5059532;28;20044;-81
2021/06/20 01:37:11;;;;;;;23.98;13.05;;;16.30;99.90;;;;;;5071757;28;20488;-81
2021/06/20 01:39:37;;;;;;;15.95;10.82;;;16.30;99.90;;;;;;5055146;28;20063;-81
2021/06/20 01:42:04;;;;;;;19.42;11.80;;;16.30;99.90;;;;;;5055381;28;20109;-81
2021/06/20 01:44:31;;;;;;;18.90;11.48;;;16.30;99.90;;;;;;5074192;28;20051;-81
2021/06/20 01:46:57;;;;;;;21.13;12.45;;;16.30;99.90;;;;;;5051373;28;20411;-81
2021/06/20 01:49:23;;;;;;;16.35;11.13;;;16.30;99.90;;;;;;5075143;28;20043;-80
2021/06/20 01:51:50;;;;;;;22.73;12.98;;;16.30;99.90;;;;;;5022236;28;20056;-81
2021/06/20 01:54:16;;;;;;;21.52;12.93;;;16.30;99.90;;;;;;5020854;28;20048;-81
2021/06/20 01:56:42;;;;;;;20.15;12.10;;;16.30;99.90;;;;;;5071647;28;20036;-81
2021/06/20 01:59:08;;;;;;;18.50;12.80;;;16.30;99.90;;;;;;5034796;28;20413;-81
2021/06/20 02:01:34;;;;;;;20.77;12.73;;;16.20;99.90;;;;;;5087246;28;20048;-81
2021/06/20 02:04:00;;;;;;;17.40;12.07;;;16.20;99.90;;;;;;5038113;28;20193;-81
2021/06/20 02:06:25;;;;;;;19.00;12.10;;;16.30;99.90;;;;;;5033234;28;20524;-81
2021/06/20 02:08:51;;;;;;;14.65;10.60;;;16.30;99.90;;;;;;5071248;28;20111;-81
2021/06/20 02:11:17;;;;;;;16.67;11.88;;;16.30;99.90;;;;;;5054475;28;20164;-81
2021/06/20 02:13:43;;;;;;;17.02;9.57;;;16.30;99.90;;;;;;5054622;28;20040;-81
2021/06/20 02:16:08;;;;;;;18.85;9.85;;;16.30;99.90;;;;;;5096280;28;20048;-82
2021/06/20 02:18:35;;;;;;;13.98;10.27;;;16.30;99.90;;;;;;5040052;28;20049;-81
2021/06/20 02:21:01;;;;;;;16.33;9.73;;;16.30;99.90;;;;;;5070801;28;20038;-81
2021/06/20 02:23:26;;;;;;;15.88;9.73;;;16.30;99.90;;;;;;5034410;28;20040;-81
2021/06/20 02:25:52;;;;;;;13.05;8.57;;;16.30;99.90;;;;;;5069310;28;20201;-81
2021/06/20 02:28:18;;;;;;;14.88;8.85;;;16.30;99.90;;;;;;5038082;28;20044;-81
2021/06/20 02:30:44;;;;;;;11.60;7.82;;;16.30;99.90;;;;;;5086932;28;20049;-81
2021/06/20 02:33:09;;;;;;;14.25;9.27;;;16.30;99.90;;;;;;5073951;28;20054;-81
2021/06/20 02:35:36;;;;;;;13.65;8.90;;;16.30;99.90;;;;;;5073180;27;20079;-81
2021/06/20 02:38:02;;;;;;;13.45;8.88;;;16.30;99.90;;;;;;5066300;28;20101;-81
2021/06/20 02:40:28;;;;;;;14.32;9.75;;;16.30;99.90;;;;;;5084277;27;20066;-82
2021/06/20 02:42:53;;;;;;;12.38;8.18;;;16.30;99.90;;;;;;5076136;27;20498;-81
2021/06/20 02:45:22;;;;;;;13.55;8.23;;;16.30;99.90;;;;;;5080530;28;20071;-81
2021/06/20 02:47:48;;;;;;;13.25;8.50;;;16.30;99.90;;;;;;5088840;27;20384;-81
2021/06/20 02:50:15;;;;;;;11.30;8.13;;;16.30;99.90;;;;;;5088988;28;20036;-81
2021/06/20 02:52:43;;;;;;;14.77;9.57;;;16.30;99.90;;;;;;5085636;28;20048;-81
2021/06/20 02:55:09;;;;;;;14.02;7.20;;;16.30;99.90;;;;;;5097773;27;20048;-81
2021/06/20 02:57:35;;;;;;;14.50;8.55;;;16.30;99.90;;;;;;5081618;28;20131;-82
2021/06/20 03:00:03;;;;;;;10.45;6.53;;;16.30;99.90;;;;;;5066222;28;20123;-81
2021/06/20 03:02:30;;;;;;;11.13;7.63;;;16.30;99.90;;;;;;5101855;28;20043;-81
2021/06/20 03:04:57;;;;;;;10.60;7.90;;;16.30;99.90;;;;;;5074832;28;20040;-81
2021/06/20 03:07:22;;;;;;;11.80;8.13;;;16.30;99.90;;;;;;5099797;28;20152;-81
2021/06/20 03:09:49;;;;;;;11.73;7.90;;;16.30;99.90;;;;;;5084460;28;20061;-81
2021/06/20 03:12:15;;;;;;;11.38;8.65;;;16.40;99.90;;;;;;5090360;28;20040;-82
2021/06/20 03:14:42;;;;;;;16.42;10.63;;;16.40;99.90;;;;;;5085690;28;20068;-81
2021/06/20 03:17:10;;;;;;;17.13;10.25;;;16.30;99.90;;;;;;5070066;28;20054;-80
2021/06/20 03:19:38;;;;;;;13.43;9.75;;;16.40;99.90;;;;;;5089010;28;20125;-81
2021/06/20 03:22:04;;;;;;;14.85;9.23;;;16.40;99.90;;;;;;5056032;28;20829;-81
2021/06/20 03:24:33;;;;;;;15.98;10.25;;;16.40;99.90;;;;;;5103478;28;20051;-81
2021/06/20 03:26:59;;;;;;;15.32;11.15;;;16.40;99.90;;;;;;5090082;28;20044;-81
2021/06/20 03:29:26;;;;;;;19.42;11.95;;;16.40;99.90;;;;;;5094978;28;20042;-81
2021/06/20 03:31:52;;;;;;;19.15;12.50;;;16.40;99.90;;;;;;5086678;28;20075;-81
2021/06/20 03:34:18;;;;;;;13.95;10.23;;;16.40;99.90;;;;;;5073928;28;20109;-81
2021/06/20 03:36:45;;;;;;;19.70;12.85;;;16.40;99.90;;;;;;5090030;28;20112;-81
2021/06/20 03:39:11;;;;;;;25.73;13.52;;;16.50;99.90;;;;;;5108012;28;20039;-81
2021/06/20 03:41:38;;;;;;;20.77;13.45;;;16.50;99.90;;;;;;5097809;28;20055;-81
2021/06/20 03:44:07;;;;;;;20.45;14.20;;;16.50;99.90;;;;;;5104272;28;20119;-81
2021/06/20 03:46:37;;;;;;;19.35;12.70;;;16.50;99.90;;;;;;5047908;28;20047;-81
2021/06/20 03:49:04;;;;;;;23.27;14.05;;;16.50;99.90;;;;;;5067232;28;20071;-81
2021/06/20 03:51:33;;;;;;;21.33;14.20;;;16.50;99.90;;;;;;5097787;28;20070;-81
2021/06/20 03:53:59;;;;;;;28.30;14.60;;;16.50;99.90;;;;;;5082546;28;20048;-81
2021/06/20 03:56:26;;;;;;;28.70;16.23;;;16.60;99.90;;;;;;5083071;28;20070;-82
2021/06/20 03:58:52;;;;;;;28.65;16.38;;;16.60;99.90;;;;;;5072489;28;20090;-81
2021/06/20 04:01:17;;;;;;;23.38;16.25;;;16.50;99.90;;;;;;5079483;28;20070;-82
2021/06/20 04:03:43;;;;;;;29.25;18.13;;;16.60;99.90;;;;;;5114295;28;20043;-81
2021/06/20 04:06:09;;;;;;;30.75;17.05;;;16.60;99.90;;;;;;5076710;28;20043;-81
2021/06/20 04:08:35;;;;;;;24.17;16.05;;;16.60;99.90;;;;;;5086806;28;20051;-81
2021/06/20 04:11:01;;;;;;;29.75;17.60;;;16.60;99.90;;;;;;5067143;28;20051;-81
2021/06/20 04:13:27;;;;;;;27.83;17.60;;;16.60;99.90;;;;;;5052558;28;20396;-81
2021/06/20 04:15:53;;;;;;;27.77;16.08;;;16.60;99.90;;;;;;5075356;28;20101;-81
2021/06/20 04:18:18;;;;;;;29.92;18.65;;;16.60;99.90;;;;;;5077064;28;20067;-81
2021/06/20 04:20:49;;;;;;;30.73;18.55;;;16.70;99.90;;;;;;5087922;28;20048;-81
2021/06/20 04:23:16;;;;;;;31.70;19.30;;;16.70;99.90;;;;;;5052837;28;20139;-81
2021/06/20 04:25:42;;;;;;;31.45;19.30;;;16.70;99.90;;;;;;5044133;28;20048;-81
2021/06/20 04:28:08;;;;;;;28.90;18.85;;;16.60;99.90;;;;;;5071690;28;20052;-81
2021/06/20 04:30:34;;;;;;;24.27;16.38;;;16.70;99.90;;;;;;5063491;28;20066;-81
2021/06/20 04:33:00;;;;;;;31.70;20.63;;;16.70;99.90;;;;;;5074707;28;20139;-81
2021/06/20 04:35:26;;;;;;;30.85;19.52;;;16.70;99.90;;;;;;5077352;28;20047;-81
2021/06/20 04:37:52;;;;;;;26.23;18.42;;;16.70;99.90;;;;;;5083011;28;20040;-81
2021/06/20 04:40:23;;;;;;;27.60;18.63;;;16.80;99.90;;;;;;5054635;28;20043;-81
2021/06/20 04:43:05;;;;;;;29.58;18.05;;;16.80;99.90;;;;;;5091143;28;20047;-80
2021/06/20 04:45:31;;;;;;;31.98;20.58;;;16.80;99.90;;;;;;5076039;28;20056;-81
2021/06/20 04:47:57;;;;;;;35.78;19.50;;;16.80;99.90;;;;;;5088526;27;20035;-81
2021/06/20 04:50:23;;;;;;;37.58;21.70;;;16.60;99.90;;;;;;5078508;28;20504;-82
2021/06/20 04:52:49;;;;;;;37.88;21.05;;;16.60;99.90;;;;;;5104458;27;20043;-81
2021/06/20 04:55:15;;;;;;;39.75;20.50;;;16.60;99.90;;;;;;5063692;28;20751;-81
2021/06/20 04:57:41;;;;;;;28.20;15.35;;;16.50;99.90;;;;;;5072463;28;20114;-81
2021/06/20 05:00:09;;;;;;;15.35;10.20;;;16.50;99.90;;;;;;5080850;28;20123;-81
2021/06/20 05:02:36;;;;;;;12.88;8.90;;;16.50;99.90;;;;;;5068561;28;20044;-81
2021/06/20 05:05:04;;;;;;;15.35;9.40;;;16.40;99.90;;;;;;5057335;28;20055;-81
2021/06/20 05:07:30;;;;;;;13.93;8.82;;;16.40;99.90;;;;;;5081752;28;20044;-81
2021/06/20 05:09:56;;;;;;;14.55;8.93;;;16.40;99.90;;;;;;5061717;28;20058;-81
2021/06/20 05:12:22;;;;;;;16.67;9.85;;;16.30;99.90;;;;;;5065852;28;20040;-81
2021/06/20 05:14:48;;;;;;;17.55;9.45;;;16.30;99.90;;;;;;5064530;28;20052;-81
2021/06/20 05:17:16;;;;;;;13.15;8.65;;;16.30;99.90;;;;;;5053888;28;20051;-81
2021/06/20 05:19:42;;;;;;;11.57;7.68;;;16.30;99.90;;;;;;5077436;28;20103;-81
2021/06/20 05:22:09;;;;;;;11.52;5.75;;;16.30;99.90;;;;;;5067667;28;20143;-81
2021/06/20 05:24:37;;;;;;;7.25;5.30;;;16.30;99.90;;;;;;5076732;28;20047;-81
2021/06/20 05:27:03;;;;;;;9.88;4.78;;;16.30;99.90;;;;;;5081691;28;20131;-81
2021/06/20 05:29:29;;;;;;;8.73;4.38;;;16.30;99.90;;;;;;5060318;28;20044;-81
2021/06/20 05:31:55;;;;;;;7.38;3.97;;;16.30;99.90;;;;;;5064656;28;20054;-82
2021/06/20 05:34:21;;;;;;;11.27;4.63;;;16.30;99.90;;;;;;5082841;28;20048;-81
2021/06/20 05:36:48;;;;;;;12.77;4.88;;;16.30;99.90;;;;;;5079938;28;20557;-81
2021/06/20 05:39:13;;;;;;;14.13;4.70;;;16.30;99.90;;;;;;5071328;28;20044;-81
2021/06/20 05:41:39;;;;;;;16.10;5.13;;;16.30;99.90;;;;;;5071823;28;20479;-81
2021/06/20 05:44:05;;;;;;;16.35;4.88;;;16.30;99.90;;;;;;5071651;28;20519;-81
2021/06/20 05:46:31;;;;;;;13.60;4.55;;;16.30;99.90;;;;;;5055326;28;20047;-81
2021/06/20 05:48:57;;;;;;;15.25;4.63;;;16.30;99.90;;;;;;5071721;28;20032;-81
2021/06/20 05:51:23;;;;;;;18.88;4.20;;;16.30;99.90;;;;;;5071769;28;20042;-81
2021/06/20 05:53:49;;;;;;;16.35;4.82;;;16.30;99.90;;;;;;5089467;28;20048;-80
2021/06/20 05:56:15;;;;;;;13.48;3.60;;;16.30;99.90;;;;;;5071115;28;20505;-81
2021/06/20 05:58:41;;;;;;;15.20;3.60;;;16.20;99.90;;;;;;5100066;28;20056;-81
2021/06/20 06:01:07;;;;;;;13.10;3.95;;;16.20;99.90;;;;;;5057555;28;20459;-81
2021/06/20 06:03:37;;;;;;;9.23;3.88;;;16.10;99.90;;;;;;5054954;28;20495;-81
2021/06/20 06:06:04;;;;;;;12.60;3.88;;;16.10;99.90;;;;;;5071964;28;20036;-81
2021/06/20 06:08:30;;;;;;;12.38;3.65;;;16.10;99.90;;;;;;5071553;28;20044;-81
2021/06/20 06:10:56;;;;;;;15.68;3.70;;;16.10;99.90;;;;;;5089487;28;20043;-81
2021/06/20 06:13:22;;;;;;;10.68;3.80;;;16.00;99.90;;;;;;5103677;28;21499;-81
2021/06/20 06:15:48;;;;;;;17.20;4.00;;;15.90;99.90;;;;;;5041811;28;20045;-81
2021/06/20 06:18:14;;;;;;;12.00;4.10;;;15.90;99.90;;;;;;5036986;28;20475;-81
2021/06/20 06:20:40;;;;;;;9.27;2.90;;;15.90;99.90;;;;;;5040505;28;20059;-81
2021/06/20 06:23:06;;;;;;;12.50;3.35;;;15.80;99.90;;;;;;5073895;28;20507;-81
2021/06/20 06:25:33;;;;;;;15.30;4.40;;;15.80;99.90;;;;;;5089203;28;20045;-81
2021/06/20 06:28:01;;;;;;;8.38;3.25;;;15.80;99.90;;;;;;5088990;28;20503;-81
2021/06/20 06:30:27;;;;;;;9.02;3.15;;;15.80;99.90;;;;;;5089146;28;20436;-80
2021/06/20 06:32:52;;;;;;;15.93;3.28;;;15.80;99.90;;;;;;5052015;28;20068;-81
2021/06/20 06:35:19;;;;;;;12.32;3.90;;;15.80;99.90;;;;;;5038506;28;20801;-81
2021/06/20 06:37:45;;;;;;;11.63;2.90;;;15.80;99.90;;;;;;5070570;28;20040;-80
2021/06/20 06:40:12;;;;;;;8.20;2.80;;;15.80;99.90;;;;;;5088825;28;20044;-81
2021/06/20 06:42:38;;;;;;;13.15;3.15;;;15.90;99.90;;;;;;5070739;28;20050;-81
2021/06/20 06:45:06;;;;;;;8.80;3.08;;;15.80;99.90;;;;;;5070812;28;20127;-81
2021/06/20 06:47:34;;;;;;;10.75;3.47;;;15.80;99.90;;;;;;5039719;28;20407;-81
2021/06/20 06:50:01;;;;;;;9.85;3.25;;;15.80;99.90;;;;;;5058709;28;20050;-82
2021/06/20 06:52:27;;;;;;;10.60;3.38;;;15.90;99.90;;;;;;5038907;28;20048;-82
2021/06/20 06:54:55;;;;;;;7.57;2.90;;;16.00;99.90;;;;;;5034026;28;20037;-81
2021/06/20 06:57:23;;;;;;;9.43;3.00;;;16.00;99.90;;;;;;5062790;28;20040;-81
2021/06/20 06:59:53;;;;;;;9.57;2.65;;;15.90;99.90;;;;;;5070373;28;20048;-81
2021/06/20 07:02:22;;;;;;;8.02;3.25;;;16.00;99.90;;;;;;5088213;28;20495;-82
2021/06/20 07:04:48;;;;;;;15.77;4.95;;;16.00;99.90;;;;;;5089408;28;20067;-81
2021/06/20 07:07:14;;;;;;;8.27;2.95;;;16.00;99.90;;;;;;5070390;28;20048;-81
2021/06/20 07:09:40;;;;;;;9.50;3.17;;;16.10;99.90;;;;;;5070116;28;20194;-82
2021/06/20 07:12:06;;;;;;;11.48;3.38;;;16.10;99.90;;;;;;5070362;28;20048;-81
2021/06/20 07:14:34;;;;;;;7.10;2.67;;;16.10;99.90;;;;;;5053592;28;20078;-82
2021/06/20 07:17:09;;;;;;;13.85;3.60;;;16.10;99.90;;;;;;5088175;28;20043;-81
2021/06/20 07:19:35;;;;;;;12.43;3.25;;;16.20;99.90;;;;;;5078925;28;20048;-82
2021/06/20 07:22:05;;;;;;;7.95;2.70;;;16.30;99.90;;;;;;5089291;28;20415;-81
2021/06/20 07:24:34;;;;;;;7.45;2.47;;;16.40;99.90;;;;;;5088144;28;20496;-82
2021/06/20 07:27:00;;;;;;;7.32;2.70;;;16.40;99.90;;;;;;5069996;28;20044;-82
2021/06/20 07:29:26;;;;;;;9.13;2.90;;;16.40;99.90;;;;;;5050088;28;20043;-81
2021/06/20 07:31:52;;;;;;;9.20;2.35;;;16.40;99.90;;;;;;5067798;28;20055;-81
2021/06/20 07:34:18;;;;;;;7.50;2.75;;;16.40;99.90;;;;;;5054596;28;20040;-81
2021/06/20 07:36:45;;;;;;;7.72;2.40;;;16.50;99.90;;;;;;5045227;28;20059;-81
2021/06/20 07:39:10;;;;;;;9.98;2.83;;;16.50;99.90;;;;;;5057462;28;20072;-82
2021/06/20 07:41:36;;;;;;;13.90;2.72;;;16.60;99.90;;;;;;5054413;28;20052;-81
2021/06/20 07:44:02;;;;;;;12.27;2.92;;;16.60;99.90;;;;;;5059158;28;20036;-81
2021/06/20 07:46:28;;;;;;;10.85;2.60;;;16.70;99.90;;;;;;5052984;28;20503;-82
2021/06/20 07:48:55;;;;;;;8.27;2.58;;;16.80;99.90;;;;;;5057395;28;20438;-82
2021/06/20 07:51:21;;;;;;;10.38;3.03;;;16.80;99.90;;;;;;5054674;28;20075;-81
2021/06/20 07:53:46;;;;;;;7.32;2.70;;;16.80;99.90;;;;;;5073086;28;20080;-82
2021/06/20 07:56:12;;;;;;;7.05;2.47;;;16.80;99.90;;;;;;5046746;28;20048;-81
2021/06/20 07:58:38;;;;;;;5.40;2.33;;;16.90;99.90;;;;;;5042522;28;20060;-82
2021/06/20 08:01:04;;;;;;;8.13;2.80;;;17.00;99.90;;;;;;5080262;28;20044;-81
2021/06/20 08:03:32;;;;;;;7.72;2.60;;;17.00;99.90;;;;;;5044669;28;20044;-82
2021/06/20 08:05:58;;;;;;;11.63;2.97;;;17.00;99.90;;;;;;5019377;28;20056;-82
2021/06/20 08:08:24;;;;;;;6.75;2.40;;;17.10;99.90;;;;;;5062146;28;20044;-82
2021/06/20 08:10:50;;;;;;;7.13;2.05;;;17.10;99.90;;;;;;5061915;28;20044;-81
2021/06/20 08:13:16;;;;;;;7.82;2.03;;;17.10;99.90;;;;;;5051903;28;20400;-81
2021/06/20 08:15:43;;;;;;;8.90;2.22;;;17.10;99.90;;;;;;5083127;28;20040;-81
2021/06/20 08:18:09;;;;;;;4.15;2.13;;;17.20;99.90;;;;;;5073455;28;20072;-81
2021/06/20 08:20:34;;;;;;;6.32;1.92;;;17.30;99.90;;;;;;5060619;28;20083;-81
2021/06/20 08:23:01;;;;;;;7.88;2.10;;;17.30;99.90;;;;;;5089306;28;20044;-81
2021/06/20 08:25:28;;;;;;;6.85;2.47;;;17.30;99.90;;;;;;5091498;28;20051;-81
2021/06/20 08:27:54;;;;;;;7.95;2.80;;;17.40;99.90;;;;;;5091003;28;20044;-82
2021/06/20 08:30:20;;;;;;;5.13;2.30;;;17.40;99.90;;;;;;5057904;28;20063;-82
2021/06/20 08:32:46;;;;;;;5.68;1.90;;;17.40;99.90;;;;;;5073157;28;20051;-81
2021/06/20 08:35:13;;;;;;;6.15;1.70;;;17.40;99.90;;;;;;5080102;28;20044;-82
2021/06/20 08:37:39;;;;;;;4.18;1.52;;;17.50;99.90;;;;;;5098350;28;20518;-82
2021/06/20 08:40:06;;;;;;;7.18;1.50;;;17.60;99.90;;;;;;5073774;28;20052;-82
2021/06/20 08:42:32;;;;;;;2.80;1.27;;;17.60;99.90;;;;;;5091009;28;20134;-81
2021/06/20 08:44:58;;;;;;;4.38;1.55;;;17.70;99.90;;;;;;5094585;28;20126;-81
2021/06/20 08:47:24;;;;;;;4.13;1.88;;;17.70;99.90;;;;;;5058878;28;20572;-82
2021/06/20 08:49:50;;;;;;;6.15;1.67;;;17.70;99.90;;;;;;5043093;28;20130;-82
2021/06/20 08:52:16;;;;;;;3.00;1.10;;;17.70;99.90;;;;;;5054027;28;20051;-82
2021/06/20 08:55:01;;;;;;;2.63;0.73;;;17.70;99.90;;;;;;5079152;28;20055;-82
2021/06/20 08:57:39;;;;;;;5.65;0.90;;;17.70;99.90;;;;;;5039830;28;20051;-81
2021/06/20 09:00:11;;;;;;;5.07;1.30;;;17.80;99.90;;;;;;5052052;28;20044;-81
2021/06/20 09:02:37;;;;;;;4.47;1.10;;;17.80;99.90;;;;;;5061546;28;20045;-82
2021/06/20 09:05:06;;;;;;;2.63;1.25;;;17.80;99.90;;;;;;5056350;28;20044;-82
2021/06/20 09:07:41;;;;;;;2.42;0.80;;;17.90;99.90;;;;;;5075284;28;20040;-81
2021/06/20 09:10:15;;;;;;;2.70;1.05;;;18.00;99.90;;;;;;5076571;28;20167;-82
2021/06/20 09:12:51;;;;;;;6.97;1.10;;;18.00;99.90;;;;;;5068735;28;20857;-82
2021/06/20 09:15:23;;;;;;;3.90;1.02;;;18.00;99.90;;;;;;5038383;28;20419;-82
2021/06/20 09:17:59;;;;;;;;;;;18.10;99.90;;;;;;5054256;28;20164;-81
2021/06/20 09:20:42;;;;;;;2.15;1.30;;;18.00;99.90;;;;;;5081417;28;20017;-82
2021/06/20 09:23:14;;;;;;;2.50;1.05;;;18.10;99.90;;;;;;5074822;28;20064;-82
2021/06/20 09:25:43;;;;;;;2.88;0.70;;;18.10;99.90;;;;;;5039254;28;20525;-82
2021/06/20 09:28:10;;;;;;;3.25;0.70;;;18.30;99.90;;;;;;5085488;28;20098;-82
2021/06/20 09:30:45;;;;;;;1.23;0.50;;;18.30;99.90;;;;;;5089357;28;20130;-81
2021/06/20 09:33:11;;;;;;;1.75;0.50;;;18.30;99.90;;;;;;5092129;28;20130;-81
2021/06/20 09:35:46;;;;;;;1.90;0.50;;;18.30;99.90;;;;;;5045533;28;20126;-82
2021/06/20 09:38:23;;;;;;;1.08;0.40;;;18.30;99.90;;;;;;5037217;28;20032;-83
2021/06/20 09:41:02;;;;;;;3.10;0.73;;;18.30;99.90;;;;;;5049859;28;20079;-81
2021/06/20 09:43:29;;;;;;;1.92;0.60;;;18.30;99.90;;;;;;5045560;28;20048;-81
2021/06/20 09:45:56;;;;;;;6.90;1.08;;;18.30;99.90;;;;;;5029424;28;20056;-82
2021/06/20 09:48:28;;;;;;;6.45;1.20;;;18.40;99.90;;;;;;5082965;28;20039;-83
2021/06/20 09:50:56;;;;;;;6.38;1.45;;;18.40;99.90;;;;;;5103388;28;20047;-83
2021/06/20 09:53:38;;;;;;;4.65;1.40;;;18.40;99.90;;;;;;5061738;28;20132;-82
2021/06/20 09:56:17;;;;;;;7.50;1.60;;;18.40;99.90;;;;;;5046468;28;20093;-82
2021/06/20 09:58:45;;;;;;;7.65;1.40;;;18.40;99.90;;;;;;5075709;28;20044;-82
2021/06/20 10:01:18;;;;;;;5.65;1.10;;;18.30;99.90;;;;;;5077408;28;20043;-82
2021/06/20 10:03:46;;;;;;;7.82;1.50;;;18.40;99.90;;;;;;5087643;28;20181;-82
2021/06/20 10:06:14;;;;;;;5.47;1.63;;;18.50;99.90;;;;;;5076401;28;20036;-81
2021/06/20 10:08:41;;;;;;;5.63;1.40;;;18.50;99.90;;;;;;5065550;28;20071;-82
2021/06/20 10:11:08;;;;;;;5.10;1.27;;;18.40;99.90;;;;;;5050315;28;20449;-82
2021/06/20 10:13:34;;;;;;;4.50;1.58;;;18.40;99.90;;;;;;5036679;28;20040;-82
2021/06/20 10:16:30;;;;;;;5.57;1.30;;;18.40;99.90;;;;;;5054856;28;20139;-82
2021/06/20 10:19:04;;;;;;;4.95;1.25;;;18.40;99.90;;;;;;5089855;28;20074;-83
2021/06/20 10:21:42;;;;;;;7.47;1.50;;;18.40;99.90;;;;;;5069798;28;20048;-82
2021/06/20 10:24:17;;;;;;;7.65;1.48;;;18.40;99.90;;;;;;5076976;28;20070;-81
2021/06/20 10:27:04;;;;;;;7.07;1.83;;;18.50;99.90;;;;;;5070078;28;20059;-82
2021/06/20 10:29:35;;;;;;;4.45;1.20;;;18.50;99.90;;;;;;5086518;28;20032;-82
2021/06/20 10:32:17;;;;;;;2.90;1.35;;;18.50;99.90;;;;;;5071924;28;20055;-82
2021/06/20 10:34:58;;;;;;;8.48;1.50;;;18.50;99.90;;;;;;5088915;28;20050;-81
2021/06/20 10:37:27;;;;;;;3.40;1.00;;;18.50;99.90;;;;;;5087395;28;20043;-81
2021/06/20 10:39:55;;;;;;;5.78;1.20;;;18.60;99.90;;;;;;5084939;28;20289;-82
2021/06/20 10:42:38;;;;;;;2.58;1.00;;;18.60;99.90;;;;;;5071369;28;20048;-82
2021/06/20 10:45:09;;;;;;;2.80;1.38;;;18.60;99.90;;;;;;5077572;28;20499;-81
2021/06/20 10:47:39;;;;;;;5.07;1.38;;;18.60;99.90;;;;;;5073532;28;20044;-82
2021/06/20 10:50:13;;;;;;;4.20;1.40;;;18.70;99.90;;;;;;5076699;28;20040;-81
2021/06/20 10:52:40;;;;;;;5.43;1.58;;;18.70;99.90;;;;;;5068778;28;20048;-81
2021/06/20 10:55:12;;;;;;;3.70;1.65;;;18.70;99.90;;;;;;5076382;28;20053;-81
2021/06/20 10:57:52;;;;;;;6.03;1.73;;;18.70;99.90;;;;;;5081246;28;20082;-81
2021/06/20 11:00:29;;;;;;;4.30;1.23;;;18.60;99.90;;;;;;5051390;28;20052;-82
2021/06/20 11:03:10;;;;;;;8.82;1.92;;;18.60;99.90;;;;;;5053169;28;20056;-81
2021/06/20 11:06:05;;;;;;;4.90;1.52;;;18.50;99.90;;;;;;5088522;28;20050;-82
2021/06/20 11:08:30;;;;;;;8.13;1.85;;;18.50;99.90;;;;;;5053018;28;20044;-81
2021/06/20 11:11:11;;;;;;;6.10;1.92;;;18.50;99.90;;;;;;5089045;28;20044;-81
2021/06/20 11:13:45;;;;;;;3.60;1.45;;;18.50;99.90;;;;;;5089071;28;20071;-82
2021/06/20 11:16:13;;;;;;;8.32;2.05;;;18.50;99.90;;;;;;5088578;28;20052;-82
2021/06/20 11:18:41;;;;;;;5.45;2.30;;;18.50;99.90;;;;;;5088785;28;20522;-81
2021/06/20 11:21:07;;;;;;;6.50;2.05;;;18.60;99.90;;;;;;5089088;28;20055;-82
2021/06/20 11:23:33;;;;;;;5.70;2.08;;;18.70;99.90;;;;;;5090383;28;20062;-82
2021/06/20 11:26:02;;;;;;;5.30;2.33;;;18.70;99.90;;;;;;5084628;28;20651;-81
2021/06/20 11:28:29;;;;;;;6.22;2.17;;;18.80;99.90;;;;;;5082641;28;20050;-81
2021/06/20 11:31:10;;;;;;;7.00;2.28;;;18.80;99.90;;;;;;5054564;28;20106;-81
2021/06/20 11:33:36;;;;;;;5.13;1.80;;;18.90;99.90;;;;;;5089861;28;20139;-81
2021/06/20 11:36:03;;;;;;;6.38;2.10;;;18.80;99.90;;;;;;5059045;28;20037;-82
2021/06/20 11:38:32;;;;;;;7.13;1.80;;;18.90;99.90;;;;;;5051562;28;20048;-81
2021/06/20 11:41:18;;;;;;;5.72;1.65;;;18.80;99.90;;;;;;5076255;28;20043;-81
2021/06/20 11:44:00;;;;;;;5.60;1.83;;;18.80;99.90;;;;;;5067822;28;20086;-82
2021/06/20 11:46:28;;;;;;;;;;;18.70;99.90;;;;;;5060092;28;20040;-82
2021/06/20 11:49:15;;;;;;;5.25;1.52;;;18.60;99.90;;;;;;5067239;28;19970;-82
2021/06/20 11:51:44;;;;;;;4.05;1.50;;;18.50;99.90;;;;;;5084738;28;20504;-82
2021/06/20 11:54:26;;;;;;;5.18;1.70;;;18.40;99.90;;;;;;5067660;28;20068;-81
2021/06/20 11:57:02;;;;;;;7.07;1.88;;;18.30;99.90;;;;;;5076130;28;20044;-82
2021/06/20 11:59:29;;;;;;;7.15;1.50;;;18.30;99.90;;;;;;5084058;28;20059;-82
2021/06/20 12:01:55;;;;;;;4.03;1.40;;;18.20;99.90;;;;;;5053387;28;20519;-82
2021/06/20 12:04:24;;;;;;;5.43;1.38;;;18.30;99.90;;;;;;5057991;28;20055;-81
2021/06/20 12:06:51;;;;;;;7.55;1.73;;;18.30;99.90;;;;;;5049783;28;20106;-82
2021/06/20 12:09:17;;;;;;;7.97;1.65;;;18.30;99.90;;;;;;5088374;28;20495;-81
2021/06/20 12:11:44;;;;;;;3.05;1.60;;;18.40;99.90;;;;;;5088056;28;20503;-81
2021/06/20 12:14:22;;;;;;;5.47;1.27;;;18.40;99.90;;;;;;5089099;28;20134;-82
2021/06/20 12:16:50;;;;;;;5.72;1.60;;;18.40;99.90;;;;;;5105659;28;20044;-82
2021/06/20 12:19:18;;;;;;;3.22;1.50;;;18.50;99.90;;;;;;5109279;28;20051;-81
2021/06/20 12:21:47;;;;;;;3.70;1.83;;;18.70;99.90;;;;;;5108217;28;20086;-81
2021/06/20 12:24:14;;;;;;;3.25;1.27;;;19.00;99.90;;;;;;5074795;28;20538;-81
2021/06/20 12:26:51;;;;;;;4.72;1.50;;;19.10;99.90;;;;;;5081519;28;20051;-82
2021/06/20 12:29:19;;;;;;;4.30;1.42;;;19.20;99.90;;;;;;5076144;28;20491;-81
2021/06/20 12:31:56;;;;;;;3.92;1.42;;;19.20;99.90;;;;;;5065466;28;20040;-81
2021/06/20 12:34:22;;;;;;;5.65;1.38;;;19.20;99.90;;;;;;5086782;28;20047;-81
2021/06/20 12:37:00;;;;;;;6.25;1.63;;;19.20;99.90;;;;;;5087736;28;20492;-80
2021/06/20 12:39:37;;;;;;;5.75;1.65;;;19.20;99.90;;;;;;5055295;28;20083;-80
2021/06/20 12:42:03;;;;;;;3.05;1.50;;;19.20;99.90;;;;;;5071338;28;20059;-82
2021/06/20 12:44:44;;;;;;;3.30;1.25;;;19.20;99.90;;;;;;5085734;28;20040;-81